createdAt,value
2019-05-10T00:00:54.080Z,100306.28
2019-05-10T00:03:38.453Z,100299.78
2019-05-10T00:06:23.017Z,100293.29
2019-05-10T00:08:48.784Z,100297.75
2019-05-10T00:11:21.677Z,100296.55
2019-05-10T00:13:58.265Z,100313.02
2019-05-10T00:16:25.117Z,100309.04
2019-05-10T00:18:50.984Z,100308.52
2019-05-10T00:21:16.856Z,100303.87
2019-05-10T00:23:42.712Z,100312.83
2019-05-10T00:26:08.624Z,100314.25
2019-05-10T00:28:34.505Z,100322.05
2019-05-10T00:31:00.364Z,100317.59
2019-05-10T00:33:26.229Z,100337.81
2019-05-10T00:35:52.098Z,100327.20
2019-05-10T00:38:17.958Z,100331.84
2019-05-10T00:40:43.845Z,100335.34
2019-05-10T00:43:10.580Z,100330.70
2019-05-10T00:45:36.435Z,100336.96
2019-05-10T00:48:02.284Z,100338.30
2019-05-10T00:50:28.141Z,100350.30
2019-05-10T00:52:54.002Z,100332.81
2019-05-10T00:55:19.948Z,100340.41
2019-05-10T00:57:45.824Z,100344.96
2019-05-10T01:00:11.985Z,100350.65
2019-05-10T01:02:37.840Z,100348.44
2019-05-10T01:05:04.634Z,100359.91
2019-05-10T01:07:30.490Z,100357.80
2019-05-10T01:09:56.335Z,100361.83
2019-05-10T01:12:22.204Z,100362.39
2019-05-10T01:14:48.114Z,100360.05
2019-05-10T01:17:13.973Z,100370.45
2019-05-10T01:19:39.904Z,100372.15
2019-05-10T01:22:05.755Z,100379.33
2019-05-10T01:24:31.613Z,100374.09
2019-05-10T01:26:57.477Z,100375.69
2019-05-10T01:29:23.334Z,100383.82
2019-05-10T01:31:49.207Z,100386.92
2019-05-10T01:34:15.071Z,100397.50
2019-05-10T01:36:40.938Z,100400.73
2019-05-10T01:39:06.803Z,100400.84
2019-05-10T01:41:32.753Z,100407.83
2019-05-10T01:43:58.633Z,100416.57
2019-05-10T01:46:24.517Z,100409.27
2019-05-10T01:48:50.370Z,100416.57
2019-05-10T01:51:16.241Z,100414.45
2019-05-10T01:53:42.111Z,100415.89
2019-05-10T01:56:07.976Z,100421.66
2019-05-10T01:58:33.834Z,100427.37
2019-05-10T02:00:59.763Z,100439.95
2019-05-10T02:03:25.628Z,100442.53
2019-05-10T02:05:51.475Z,100444.69
2019-05-10T02:08:17.331Z,100453.06
2019-05-10T02:10:43.194Z,100448.02
2019-05-10T02:13:09.069Z,100460.02
2019-05-10T02:15:35.127Z,100465.20
2019-05-10T02:18:00.980Z,100458.50
2019-05-10T02:20:26.856Z,100466.33
2019-05-10T02:22:52.710Z,100464.88
2019-05-10T02:25:18.567Z,100460.69
2019-05-10T02:27:44.434Z,100463.19
2019-05-10T02:30:10.607Z,100462.59
2019-05-10T02:32:36.489Z,100472.62
2019-05-10T02:35:04.953Z,100467.98
2019-05-10T02:37:31.648Z,100471.08
2019-05-10T02:39:57.504Z,100477.05
2019-05-10T02:42:23.359Z,100475.19
2019-05-10T02:44:49.239Z,100487.07
2019-05-10T02:47:15.918Z,100485.90
2019-05-10T02:49:41.793Z,100498.92
2019-05-10T02:52:07.949Z,100499.07
2019-05-10T02:54:34.010Z,100509.55
2019-05-10T02:57:01.702Z,100509.80
2019-05-10T02:59:28.868Z,100514.51
2019-05-10T03:01:55.344Z,100515.88
2019-05-10T03:04:23.605Z,100520.66
2019-05-10T03:06:53.277Z,100528.77
2019-05-10T03:09:22.931Z,100540.75
2019-05-10T03:11:48.791Z,100531.89
2019-05-10T03:14:18.244Z,100533.17
2019-05-10T03:16:48.923Z,100539.79
2019-05-10T03:19:17.985Z,100550.70
2019-05-10T03:21:47.049Z,100553.84
2019-05-10T03:24:12.905Z,100559.77
2019-05-10T03:26:50.983Z,100562.80
2019-05-10T03:29:09.328Z,100560.23
2019-05-10T03:31:35.503Z,100569.81
2019-05-10T03:34:01.411Z,100571.30
2019-05-10T03:36:27.494Z,100572.51
2019-05-10T03:38:53.641Z,100579.81
2019-05-10T03:41:19.519Z,100580.36
2019-05-10T03:43:45.369Z,100578.60
2019-05-10T03:46:11.221Z,100592.37
2019-05-10T03:48:37.100Z,100585.84
2019-05-10T03:51:02.955Z,100593.69
2019-05-10T03:53:28.828Z,100596.41
2019-05-10T03:55:54.690Z,100587.52
2019-05-10T03:58:20.545Z,100592.83
2019-05-10T04:00:46.434Z,100604.25
2019-05-10T04:03:12.307Z,100599.21
2019-05-10T04:05:38.149Z,100605.36
2019-05-10T04:08:03.997Z,100604.84
2019-05-10T04:10:29.891Z,100603.58
2019-05-10T04:12:55.838Z,100604.25
2019-05-10T04:15:21.694Z,100609.41
2019-05-10T04:17:50.160Z,100615.27
2019-05-10T04:20:15.646Z,100614.99
2019-05-10T04:22:41.496Z,100625.48
2019-05-10T04:25:07.671Z,100609.67
2019-05-10T04:27:33.560Z,100616.58
2019-05-10T04:29:59.408Z,100622.69
2019-05-10T04:32:25.274Z,100623.54
2019-05-10T04:34:51.133Z,100626.22
2019-05-10T04:37:16.976Z,100644.34
2019-05-10T04:39:42.941Z,100637.80
2019-05-10T04:42:08.786Z,100647.44
2019-05-10T04:44:34.641Z,100650.13
2019-05-10T04:47:00.499Z,100653.22
2019-05-10T04:49:26.370Z,100658.34
2019-05-10T04:51:53.101Z,100658.34
2019-05-10T04:54:18.969Z,100662.92
2019-05-10T04:56:44.813Z,100672.14
2019-05-10T04:59:10.671Z,100664.93
2019-05-10T05:01:36.579Z,100669.77
2019-05-10T05:04:02.537Z,100662.39
2019-05-10T05:06:28.420Z,100669.04
2019-05-10T05:08:54.259Z,100681.03
2019-05-10T05:11:20.120Z,100678.35
2019-05-10T05:13:45.968Z,100678.88
2019-05-10T05:16:11.832Z,100685.14
2019-05-10T05:18:37.685Z,100686.81
2019-05-10T05:21:03.549Z,100685.72
2019-05-10T05:23:29.462Z,100694.63
2019-05-10T05:25:55.393Z,100695.47
2019-05-10T05:28:23.302Z,100698.56
2019-05-10T05:30:49.026Z,100707.05
2019-05-10T05:33:14.883Z,100712.45
2019-05-10T05:35:40.754Z,100708.68
2019-05-10T05:38:06.609Z,100715.27
2019-05-10T05:40:32.477Z,100716.91
2019-05-10T05:43:02.671Z,100731.84
2019-05-10T05:45:28.358Z,100729.72
2019-05-10T05:47:53.882Z,100735.94
2019-05-10T05:50:19.739Z,100732.31
2019-05-10T05:52:45.642Z,100730.56
2019-05-10T05:55:11.827Z,100739.58
2019-05-10T05:57:37.660Z,100748.91
2019-05-10T06:00:06.665Z,100742.92
2019-05-10T06:02:32.691Z,100743.62
2019-05-10T06:04:58.546Z,100743.98
2019-05-10T06:07:24.407Z,100754.19
2019-05-10T06:09:50.276Z,100755.08
2019-05-10T06:12:16.133Z,100753.47
2019-05-10T06:14:43.071Z,100758.75
2019-05-10T06:17:09.780Z,100766.70
2019-05-10T06:19:35.657Z,100776.58
2019-05-10T06:22:04.609Z,100778.84
2019-05-10T06:24:29.356Z,100791.33
2019-05-10T06:26:58.202Z,100798.38
2019-05-10T06:29:23.038Z,100803.70
2019-05-10T06:31:48.951Z,100795.16
2019-05-10T06:34:14.798Z,100797.84
2019-05-10T06:36:40.665Z,100803.95
2019-05-10T06:39:06.726Z,100811.38
2019-05-10T06:41:32.779Z,100815.92
2019-05-10T06:43:58.645Z,100820.36
2019-05-10T06:46:29.806Z,100825.28
2019-05-10T06:48:52.280Z,100837.28
2019-05-10T06:51:18.182Z,100835.72
2019-05-10T06:53:52.114Z,100848.31
2019-05-10T06:56:12.674Z,100832.59
2019-05-10T06:58:38.602Z,100832.73
2019-05-10T07:01:04.492Z,100837.27
2019-05-10T07:03:30.337Z,100841.17
2019-05-10T07:05:56.192Z,100852.47
2019-05-10T07:08:22.079Z,100842.27
2019-05-10T07:10:47.937Z,100853.23
2019-05-10T07:13:13.813Z,100857.10
2019-05-10T07:15:42.286Z,100861.31
2019-05-10T07:18:07.546Z,100859.69
2019-05-10T07:20:33.402Z,100864.52
2019-05-10T07:23:00.070Z,100861.23
2019-05-10T07:25:27.046Z,100863.87
2019-05-10T07:27:52.922Z,100864.27
2019-05-10T07:30:33.353Z,100864.27
2019-05-10T07:32:59.673Z,100862.16
2019-05-10T07:35:30.905Z,100863.70
2019-05-10T07:37:54.832Z,100871.61
2019-05-10T07:40:20.682Z,100864.83
2019-05-10T07:42:47.158Z,100868.10
2019-05-10T07:45:13.090Z,100867.01
2019-05-10T07:47:39.057Z,100870.03
2019-05-10T07:50:09.955Z,100870.03
2019-05-10T07:52:36.242Z,100873.22
2019-05-10T07:55:00.974Z,100887.45
2019-05-10T07:57:27.149Z,100885.93
2019-05-10T07:59:57.482Z,100888.52
2019-05-10T08:02:20.848Z,100889.91
2019-05-10T08:04:46.698Z,100894.84
2019-05-10T08:07:12.566Z,100901.33
2019-05-10T08:09:44.819Z,100898.73
2019-05-10T08:12:06.165Z,100908.49
2019-05-10T08:14:32.019Z,100914.89
2019-05-10T08:17:01.749Z,100912.19
2019-05-10T08:19:25.658Z,100914.63
2019-05-10T08:21:56.524Z,100919.59
2019-05-10T08:24:22.047Z,100918.63
2019-05-10T08:26:47.734Z,100925.52
2019-05-10T08:29:16.961Z,100928.19
2019-05-10T08:31:50.535Z,100929.55
2019-05-10T08:34:11.645Z,100940.91
2019-05-10T08:36:42.179Z,100941.56
2019-05-10T08:39:10.670Z,100938.65
2019-05-10T08:41:33.177Z,100948.59
2019-05-10T08:43:59.045Z,100947.78
2019-05-10T08:46:37.397Z,100954.37
2019-05-10T08:48:53.815Z,100946.56
2019-05-10T08:51:19.926Z,100966.81
2019-05-10T08:53:47.167Z,100954.61
2019-05-10T08:56:21.011Z,100952.26
2019-05-10T08:58:42.243Z,100959.13
2019-05-10T09:01:20.072Z,100965.34
2019-05-10T09:03:36.158Z,100965.41
2019-05-10T09:06:03.549Z,100975.19
2019-05-10T09:08:32.536Z,100958.25
2019-05-10T09:10:57.527Z,100967.59
2019-05-10T09:13:23.388Z,100973.23
2019-05-10T09:15:56.019Z,100975.36
2019-05-10T09:18:17.238Z,100976.27
2019-05-10T09:20:43.151Z,100976.33
2019-05-10T09:23:15.365Z,100986.52
2019-05-10T09:25:36.872Z,100977.27
2019-05-10T09:28:11.670Z,100983.09
2019-05-10T09:30:35.420Z,100976.33
2019-05-10T09:33:08.291Z,100976.35
2019-05-10T09:35:28.914Z,100977.94
2019-05-10T09:37:58.564Z,100983.38
2019-05-10T09:40:22.541Z,100995.73
2019-05-10T09:42:48.520Z,100993.61
2019-05-10T09:45:14.573Z,100999.74
2019-05-10T09:47:43.436Z,101001.94
2019-05-10T09:50:08.583Z,100999.55
2019-05-10T09:52:34.440Z,101002.84
2019-05-10T09:55:03.971Z,101004.97
2019-05-10T09:57:32.025Z,101008.35
2019-05-10T09:59:57.281Z,100999.52
2019-05-10T10:02:27.251Z,101007.34
2019-05-10T10:04:50.994Z,101014.61
2019-05-10T10:07:18.928Z,101010.69
2019-05-10T10:09:45.643Z,101020.25
2019-05-10T10:12:12.368Z,101018.83
2019-05-10T10:14:42.587Z,101022.12
2019-05-10T10:17:08.134Z,101026.27
2019-05-10T10:19:33.741Z,101018.20
2019-05-10T10:21:59.615Z,101028.88
2019-05-10T10:24:25.464Z,101027.83
2019-05-10T10:26:53.854Z,101025.12
2019-05-10T10:29:19.229Z,101027.31
2019-05-10T10:31:53.020Z,101028.73
2019-05-10T10:34:12.859Z,101021.28
2019-05-10T10:36:42.619Z,101026.14
2019-05-10T10:39:07.436Z,101029.13
2019-05-10T10:41:33.452Z,101034.91
2019-05-10T10:43:59.297Z,101025.09
2019-05-10T10:46:25.183Z,101029.61
2019-05-10T10:48:51.522Z,101025.81
2019-05-10T10:51:18.218Z,101030.77
2019-05-10T10:53:44.265Z,101033.04
2019-05-10T10:56:10.121Z,101034.98
2019-05-10T10:58:36.921Z,101037.20
2019-05-10T11:01:10.554Z,101039.71
2019-05-10T11:03:32.409Z,101020.88
2019-05-10T11:05:58.274Z,101029.13
2019-05-10T11:08:24.144Z,101025.66
2019-05-10T11:10:50.717Z,101035.88
2019-05-10T11:13:23.701Z,101039.52
2019-05-10T11:15:44.521Z,101038.55
2019-05-10T11:18:10.402Z,101030.30
2019-05-10T11:20:36.428Z,101038.19
2019-05-10T11:23:02.505Z,101039.59
2019-05-10T11:25:28.354Z,101046.78
2019-05-10T11:27:58.629Z,101047.34
2019-05-10T11:30:22.181Z,101051.17
2019-05-10T11:32:48.030Z,101053.05
2019-05-10T11:35:19.002Z,101054.86
2019-05-10T11:37:45.399Z,101042.75
2019-05-10T11:40:11.336Z,101063.92
2019-05-10T11:42:42.179Z,101058.74
2019-05-10T11:45:05.665Z,101062.12
2019-05-10T11:47:31.520Z,101065.02
2019-05-10T11:49:57.408Z,101062.18
2019-05-10T11:52:23.261Z,101060.48
2019-05-10T11:54:51.435Z,101062.47
2019-05-10T11:57:17.381Z,101064.51
2019-05-10T11:59:43.248Z,101059.28
2019-05-10T12:02:10.573Z,101060.25
2019-05-10T12:04:39.497Z,101065.25
2019-05-10T12:09:34.582Z,101069.21
2019-05-10T12:12:03.423Z,101068.90
2019-05-10T12:14:28.262Z,101067.69
2019-05-10T12:16:54.730Z,101066.73
2019-05-10T12:19:21.501Z,101071.28
2019-05-10T12:21:47.494Z,101063.64
2019-05-10T12:24:32.551Z,101066.70
2019-05-10T12:26:19.808Z,101070.86
2019-05-10T12:27:13.339Z,101073.19
2019-05-10T12:29:13.456Z,101073.67
2019-05-10T12:31:36.801Z,101077.59
2019-05-10T12:34:09.283Z,101078.38
2019-05-10T12:36:31.409Z,101075.16
2019-05-10T12:38:58.952Z,101078.20
2019-05-10T12:41:25.189Z,101081.95
2019-05-10T12:43:51.722Z,101079.33
2019-05-10T12:46:17.840Z,101089.33
2019-05-10T12:48:43.694Z,101080.25
2019-05-10T12:51:12.638Z,101080.00
2019-05-10T12:53:44.561Z,101087.08
2019-05-10T12:56:05.218Z,101080.91
2019-05-10T12:58:31.142Z,101081.44
2019-05-10T13:00:59.088Z,101084.16
2019-05-10T13:03:30.688Z,101082.47
2019-05-10T13:05:53.564Z,101086.86
2019-05-10T13:08:19.657Z,101091.37
2019-05-10T13:10:49.425Z,101083.52
2019-05-10T13:13:17.626Z,101089.80
2019-05-10T13:15:41.055Z,101095.55
2019-05-10T13:18:06.903Z,101091.37
2019-05-10T13:20:36.483Z,101091.61
2019-05-10T13:23:00.550Z,101101.11
2019-05-10T13:25:26.397Z,101100.92
2019-05-10T13:27:52.265Z,101101.39
2019-05-10T13:30:27.478Z,101097.86
2019-05-10T13:32:46.390Z,101116.80
2019-05-10T13:35:12.367Z,101107.03
2019-05-10T13:37:38.227Z,101118.69
2019-05-10T13:40:06.242Z,101111.79
2019-05-10T13:44:53.774Z,101118.77
2019-05-10T13:47:19.630Z,101125.84
2019-05-10T13:49:48.637Z,101128.99
2019-05-10T13:52:13.252Z,101124.31
2019-05-10T13:54:39.128Z,101124.34
2019-05-10T13:57:04.985Z,101132.13
2019-05-10T13:59:30.849Z,101134.45
2019-05-10T14:01:56.715Z,101141.02
2019-05-10T14:04:23.278Z,101139.10
2019-05-10T14:06:49.274Z,101133.73
2019-05-10T14:09:15.128Z,101141.13
2019-05-10T14:11:46.449Z,101135.82
2019-05-10T14:14:14.700Z,101141.50
2019-05-10T14:16:36.568Z,101144.55
2019-05-10T14:19:02.715Z,101145.83
2019-05-10T14:21:28.584Z,101148.00
2019-05-10T14:23:56.801Z,101150.04
2019-05-10T14:26:22.188Z,101147.77
2019-05-10T14:28:53.106Z,101144.77
2019-05-10T14:31:15.905Z,101138.59
2019-05-10T14:33:41.759Z,101139.80
2019-05-10T14:36:07.613Z,101140.89
2019-05-10T14:38:33.470Z,101144.23
2019-05-10T14:41:03.976Z,101134.15
2019-05-10T14:43:27.191Z,101134.83
2019-05-10T14:45:53.063Z,101133.59
2019-05-10T14:48:28.136Z,101142.22
2019-05-10T14:50:47.228Z,101135.86
2019-05-10T14:53:13.265Z,101131.87
2019-05-10T14:55:39.132Z,101137.91
2019-05-10T14:58:04.983Z,101139.20
2019-05-10T15:00:30.840Z,101139.11
2019-05-10T15:03:01.923Z,101138.42
2019-05-10T15:05:24.752Z,101138.91
2019-05-10T15:07:51.298Z,101131.28
2019-05-10T15:10:17.327Z,101136.42
2019-05-10T15:12:43.189Z,101121.98
2019-05-10T15:15:09.400Z,101126.78
2019-05-10T15:17:35.286Z,101127.50
2019-05-10T15:20:02.147Z,101129.64
2019-05-10T15:22:27.990Z,101126.51
2019-05-10T15:24:53.857Z,101123.07
2019-05-10T15:27:21.796Z,101119.41
2019-05-10T15:29:47.491Z,101123.31
2019-05-10T15:32:13.354Z,101122.50
2019-05-10T15:34:39.211Z,101130.08
2019-05-10T15:37:09.325Z,101127.51
2019-05-10T15:39:32.822Z,101130.30
2019-05-10T15:42:00.559Z,101129.77
2019-05-10T15:44:31.402Z,101130.39
2019-05-10T15:46:54.202Z,101131.81
2019-05-10T15:49:23.272Z,101128.33
2019-05-10T15:51:49.145Z,101133.51
2019-05-10T15:54:15.641Z,101134.87
2019-05-10T15:56:43.992Z,101129.09
2019-05-10T15:59:12.973Z,101136.86
2019-05-10T16:01:37.176Z,101143.35
2019-05-10T16:04:03.629Z,101133.36
2019-05-10T16:06:32.492Z,101129.78
2019-05-10T16:08:57.385Z,101125.66
2019-05-10T16:11:23.295Z,101126.30
2019-05-10T16:13:49.160Z,101133.99
2019-05-10T16:16:15.020Z,101136.05
2019-05-10T16:18:41.757Z,101131.20
2019-05-10T16:21:09.732Z,101126.72
2019-05-10T16:23:35.517Z,101124.86
2019-05-10T16:26:01.378Z,101127.29
2019-05-10T16:28:27.245Z,101120.27
2019-05-10T16:30:53.099Z,101115.95
2019-05-10T16:33:18.949Z,101107.73
2019-05-10T16:35:49.547Z,101109.80
2019-05-10T16:38:12.806Z,101112.56
2019-05-10T16:40:38.657Z,101110.69
2019-05-10T16:43:06.934Z,101107.40
2019-05-10T16:45:32.285Z,101113.44
2019-05-10T16:47:58.136Z,101112.92
2019-05-10T16:50:26.045Z,101106.48
2019-05-10T16:52:51.784Z,101106.08
2019-05-10T16:55:17.634Z,101096.07
2019-05-10T16:57:43.509Z,101095.84
2019-05-10T17:00:10.624Z,101090.70
2019-05-10T17:02:41.874Z,101093.64
2019-05-10T17:05:09.708Z,101092.73
2019-05-10T17:07:33.773Z,101096.73
2019-05-10T17:09:59.620Z,101096.91
2019-05-10T17:12:27.721Z,101110.06
2019-05-10T17:14:56.515Z,101099.19
2019-05-10T17:17:20.997Z,101102.41
2019-05-10T17:19:46.951Z,101107.53
2019-05-10T17:22:12.822Z,101097.44
2019-05-10T17:24:38.665Z,101109.47
2019-05-10T17:27:04.514Z,101091.50
2019-05-10T17:29:30.372Z,101105.28
2019-05-10T17:31:56.681Z,101099.29
2019-05-10T17:34:29.062Z,101097.58
2019-05-10T17:36:51.832Z,101095.47
2019-05-10T17:39:18.086Z,101091.59
2019-05-10T17:41:43.933Z,101095.14
2019-05-10T17:44:09.880Z,101097.44
2019-05-10T17:46:36.498Z,101088.46
2019-05-10T17:49:03.149Z,101091.17
2019-05-10T17:51:28.997Z,101088.14
2019-05-10T17:54:01.645Z,101107.06
2019-05-10T17:56:22.621Z,101095.70
2019-05-10T17:58:48.482Z,101107.42
2019-05-10T18:01:14.325Z,101107.42
2019-05-10T18:03:40.193Z,101100.75
2019-05-10T18:06:06.063Z,101108.39
2019-05-10T18:08:31.907Z,101119.23
2019-05-10T18:11:04.113Z,101113.38
2019-05-10T18:13:26.393Z,101127.05
2019-05-10T18:15:52.240Z,101123.09
2019-05-10T18:18:18.104Z,101126.39
2019-05-10T18:20:44.639Z,101130.52
2019-05-10T18:23:20.084Z,101136.42
2019-05-10T18:25:38.473Z,101134.19
2019-05-10T18:28:04.326Z,101128.40
2019-05-10T18:30:30.181Z,101130.82
2019-05-10T18:32:56.033Z,101125.25
2019-05-10T18:35:21.890Z,101126.47
2019-05-10T18:37:47.746Z,101126.47
2019-05-10T18:40:13.905Z,101128.27
2019-05-10T18:42:39.861Z,101113.66
2019-05-10T18:45:06.512Z,101111.76
2019-05-10T18:47:32.373Z,101113.10
2019-05-10T18:49:58.226Z,101113.27
2019-05-10T18:52:24.171Z,101120.67
2019-05-10T18:54:50.046Z,101117.00
2019-05-10T18:57:19.258Z,101123.83
2019-05-10T18:59:45.489Z,101125.52
2019-05-10T19:02:11.849Z,101132.95
2019-05-10T19:04:39.215Z,101122.07
2019-05-10T19:07:09.727Z,101119.94
2019-05-10T19:09:32.821Z,101122.97
2019-05-10T19:11:58.780Z,101126.90
2019-05-10T19:14:29.622Z,101120.30
2019-05-10T19:16:52.422Z,101134.38
2019-05-10T19:19:18.311Z,101139.36
2019-05-10T19:21:44.165Z,101142.06
2019-05-10T19:24:10.054Z,101143.44
2019-05-10T19:26:35.907Z,101151.04
2019-05-10T19:29:05.374Z,101143.39
2019-05-10T19:31:31.739Z,101156.49
2019-05-10T19:33:58.347Z,101145.70
2019-05-10T19:36:24.304Z,101160.25
2019-05-10T19:38:50.179Z,101157.58
2019-05-10T19:41:20.116Z,101157.78
2019-05-10T19:43:43.812Z,101160.73
2019-05-10T19:46:09.661Z,101167.09
2019-05-10T19:48:36.925Z,101178.44
2019-05-10T19:51:09.739Z,101179.43
2019-05-10T19:53:30.693Z,101173.52
2019-05-10T19:55:58.786Z,101192.70
2019-05-10T19:58:26.367Z,101177.38
2019-05-10T20:00:52.456Z,101189.97
2019-05-10T20:03:18.316Z,101179.66
2019-05-10T20:05:44.180Z,101178.64
2019-05-10T20:08:10.043Z,101190.28
2019-05-10T20:10:35.929Z,101180.58
2019-05-10T20:13:01.781Z,101188.91
2019-05-10T20:15:27.629Z,101184.89
2019-05-10T20:17:53.499Z,101193.02
2019-05-10T20:20:19.349Z,101185.05
2019-05-10T20:22:45.201Z,101183.15
2019-05-10T20:25:11.366Z,101184.67
2019-05-10T20:27:37.309Z,101181.20
2019-05-10T20:30:04.460Z,101182.45
2019-05-10T20:32:30.324Z,101181.23
2019-05-10T20:34:56.179Z,101176.20
2019-05-10T20:37:22.037Z,101181.59
2019-05-10T20:39:47.905Z,101188.19
2019-05-10T20:42:13.756Z,101174.30
2019-05-10T20:44:39.613Z,101175.47
2019-05-10T20:47:05.475Z,101166.28
2019-05-10T20:49:31.357Z,101164.75
2019-05-10T20:51:57.355Z,101156.83
2019-05-10T20:54:23.186Z,101160.30
2019-05-10T20:56:49.039Z,101159.32
2019-05-10T20:59:15.398Z,101155.55
2019-05-10T21:01:41.266Z,101150.11
2019-05-10T21:04:07.133Z,101143.28
2019-05-10T21:06:33.030Z,101149.84
2019-05-10T21:08:59.726Z,101132.24
2019-05-10T21:11:25.587Z,101125.59
2019-05-10T21:13:51.437Z,101129.22
2019-05-10T21:16:17.298Z,101132.33
2019-05-10T21:18:43.165Z,101132.18
2019-05-10T21:21:09.019Z,101135.80
2019-05-10T21:23:34.874Z,101134.00
2019-05-10T21:26:00.749Z,101129.80
2019-05-10T21:28:26.613Z,101133.00
2019-05-10T21:30:53.663Z,101139.86
2019-05-10T21:33:19.695Z,101128.23
2019-05-10T21:35:45.554Z,101136.25
2019-05-10T21:38:11.505Z,101141.52
2019-05-10T21:40:37.536Z,101129.63
2019-05-10T21:43:03.393Z,101132.73
2019-05-10T21:45:29.241Z,101125.88
2019-05-10T21:47:55.097Z,101124.72
2019-05-10T21:50:20.955Z,101134.61
2019-05-10T21:52:46.841Z,101128.00
2019-05-10T21:55:12.756Z,101119.25
2019-05-10T21:57:38.705Z,101115.06
2019-05-10T22:00:06.210Z,101114.34
2019-05-10T22:02:32.074Z,101103.90
2019-05-10T22:04:57.942Z,101112.31
2019-05-10T22:07:23.798Z,101117.68
2019-05-10T22:09:49.766Z,101120.76
2019-05-10T22:12:15.630Z,101122.43
2019-05-10T22:14:41.519Z,101123.42
2019-05-10T22:17:07.376Z,101121.20
2019-05-10T22:19:33.229Z,101130.73
2019-05-10T22:21:59.096Z,101117.23
2019-05-10T22:24:24.992Z,101110.38
2019-05-10T22:26:50.848Z,101107.99
2019-05-10T22:29:16.701Z,101097.84
2019-05-10T22:31:42.549Z,101100.14
2019-05-10T22:34:08.417Z,101089.69
2019-05-10T22:36:34.265Z,101095.36
2019-05-10T22:39:07.220Z,101087.28
2019-05-10T22:41:27.922Z,101085.33
2019-05-10T22:43:53.772Z,101084.55
2019-05-10T22:46:19.621Z,101083.17
2019-05-10T22:48:45.557Z,101084.26
2019-05-10T22:51:11.402Z,101089.30
2019-05-10T22:53:37.412Z,101083.03
2019-05-10T22:56:03.487Z,101083.81
2019-05-10T22:58:29.334Z,101091.33
2019-05-10T23:00:55.190Z,101082.25
2019-05-10T23:03:24.412Z,101093.66
2019-05-10T23:05:48.807Z,101091.92
2019-05-10T23:08:14.683Z,101085.14
2019-05-10T23:10:40.530Z,101084.19
2019-05-10T23:13:06.388Z,101092.55
2019-05-10T23:15:32.265Z,101085.63
2019-05-10T23:17:58.129Z,101079.03
2019-05-10T23:20:23.990Z,101085.48
2019-05-10T23:22:49.839Z,101087.92
2019-05-10T23:25:15.694Z,101091.41
2019-05-10T23:27:41.616Z,101086.92
2019-05-10T23:30:07.973Z,101075.96
2019-05-10T23:32:33.825Z,101073.14
2019-05-10T23:34:59.713Z,101070.29
2019-05-10T23:37:25.564Z,101068.42
2019-05-10T23:39:51.417Z,101064.13
2019-05-10T23:42:17.286Z,101063.99
2019-05-10T23:44:43.510Z,101064.11
2019-05-10T23:47:09.368Z,101069.14
2019-05-10T23:49:35.246Z,101061.63
2019-05-10T23:52:01.200Z,101073.03
2019-05-10T23:54:27.111Z,101069.33
2019-05-10T23:56:53.043Z,101080.14
2019-05-10T23:59:18.962Z,101084.08
